KSJT

San Angelo Regional / Mathis Field Airport

San Angelo, Texas, USA
METAR KSJT 220351Z AUTO 19013G22KT 10SM CLR 13/07 A2981 RMK AO2 SLP089 T01330067
Observed Flight Rules
Jan-22 @ 03:51 UTC (an hour ago) Visual Flight Rules
Wind Visibility Clouds
190° at 13 knots
 Gusting to 22 knots
10 miles
  • Clear skies
Temperatures Readings
Current 13°C / 55°F
Dewpoint 7°C / 45°F
Humidity 67%
Altimeter 29.81" Hg
Pressure 1008.9 hPa
Elevation 576
METAR KSJT 220351Z AUTO 19013G22KT 10SM CLR 13/07 A2981 RMK AO2 SLP089 T01330067
Observed Flight Rules
Jan-22 @ 03:51 UTC
(an hour ago)
VFR
Wind Visibility
190° at 13 knots
 Gusting to 22 knots
10 miles
Clouds
  • Clear skies
Temperature Dewpoint
13°C / 55°F 7°C / 45°F
Humidity Altimeter Pressure
67% 29.81" Hg 1008.9 hPa